Time;durP1;ratioP1;P1;durP2;ratioP2;P2;SDS_P1;SDS_P2;PMS_P1;PMS_P2;Temp;Humidity;BMP_temperature;BMP_pressure;BME280_temperature;BME280_humidity;BME280_pressure;Samples;Min_cycle;Max_cycle;Signal;HPM_P1;HPM_P2
2023/12/31 00:01:28;;;;;;;4.80;1.80;;;7.00;99.90;;;7.73;100.00;97378.06;4948582;28;20463;-79
2023/12/31 00:03:57;;;;;;;3.10;1.63;;;6.90;99.90;;;7.71;100.00;97373.03;4957377;28;20469;-79
2023/12/31 00:06:25;;;;;;;3.90;2.30;;;7.00;99.90;;;7.58;100.00;97367.69;4959185;28;20570;-80
2023/12/31 00:08:54;;;;;;;2.63;1.63;;;6.90;99.90;;;7.48;100.00;97368.00;4956161;28;20458;-80
2023/12/31 00:11:22;;;;;;;2.43;1.90;;;6.70;99.90;;;7.40;100.00;97368.09;4951739;28;20479;-80
2023/12/31 00:13:51;;;;;;;3.90;2.10;;;6.60;99.90;;;7.43;100.00;97353.91;4963875;28;20489;-78
2023/12/31 00:16:20;;;;;;;4.67;2.07;;;6.60;99.90;;;7.44;100.00;97348.53;4943972;28;20506;-79
2023/12/31 00:18:50;;;;;;;6.20;1.80;;;6.70;99.90;;;7.37;100.00;97342.47;4958202;28;20471;-80
2023/12/31 00:21:18;;;;;;;9.10;2.50;;;6.50;99.90;;;7.39;100.00;97334.50;4966252;28;20530;-80
2023/12/31 00:23:47;;;;;;;3.20;2.50;;;6.60;99.90;;;7.32;100.00;97337.03;4962955;28;20527;-80
2023/12/31 00:26:15;;;;;;;2.90;2.07;;;6.50;99.90;;;7.29;100.00;97336.59;4961478;28;20517;-80
2023/12/31 00:28:44;;;;;;;2.63;1.97;;;6.40;99.90;;;7.18;100.00;97335.28;4962208;28;20474;-80
2023/12/31 00:31:12;;;;;;;3.70;2.60;;;6.40;99.90;;;7.19;100.00;97323.06;4949886;28;20474;-80
2023/12/31 00:33:41;;;;;;;2.70;1.93;;;6.40;99.90;;;7.18;100.00;97327.47;4955898;28;20525;-80
2023/12/31 00:36:11;;;;;;;5.73;2.03;;;6.30;99.90;;;7.11;100.00;97323.19;4954744;28;20860;-80
2023/12/31 00:38:40;;;;;;;3.07;2.10;;;6.30;99.90;;;7.18;100.00;97311.88;4959065;28;20459;-81
2023/12/31 00:41:08;;;;;;;6.13;1.63;;;6.30;99.90;;;7.03;100.00;97324.91;4957577;28;20485;-81
2023/12/31 00:43:37;;;;;;;3.87;1.90;;;6.20;99.90;;;6.90;100.00;97309.16;4960420;28;20951;-80
2023/12/31 00:46:06;;;;;;;1.87;1.70;;;6.00;99.90;;;6.93;100.00;97310.56;4956044;28;20504;-80
2023/12/31 00:48:34;;;;;;;6.23;2.00;;;6.10;99.90;;;6.92;100.00;97306.34;4958582;28;20496;-78
2023/12/31 00:51:04;;;;;;;3.57;2.00;;;6.10;99.90;;;6.91;100.00;97309.94;4959844;28;20505;-80
2023/12/31 00:53:34;;;;;;;3.57;2.03;;;6.10;99.90;;;6.75;100.00;97289.38;4958449;28;20458;-80
2023/12/31 00:56:02;;;;;;;4.93;2.03;;;5.90;99.90;;;6.61;100.00;97282.41;4963975;28;20500;-80
2023/12/31 00:58:31;;;;;;;6.70;1.83;;;5.70;99.90;;;6.64;100.00;97287.22;4960021;28;20470;-80
2023/12/31 01:00:59;;;;;;;2.20;1.70;;;5.80;99.90;;;6.52;100.00;97284.31;4961655;28;20478;-80
2023/12/31 01:03:28;;;;;;;2.97;1.87;;;5.60;99.90;;;6.41;100.00;97272.56;4964891;28;20471;-80
2023/12/31 01:06:05;;;;;;;2.87;2.10;;;5.50;99.90;;;6.36;100.00;97293.06;4960830;28;20485;-80
2023/12/31 01:08:35;;;;;;;6.13;2.40;;;5.50;99.90;;;6.38;100.00;97278.13;4973986;28;20544;-80
2023/12/31 01:11:04;;;;;;;6.53;2.37;;;5.50;99.90;;;6.39;100.00;97271.94;4958374;28;20497;-81
2023/12/31 01:13:33;;;;;;;2.90;1.87;;;5.60;99.90;;;6.44;100.00;97269.63;4943597;28;20463;-80
2023/12/31 01:16:02;;;;;;;2.63;2.00;;;5.70;99.90;;;6.32;100.00;97268.44;4944248;28;20600;-80
2023/12/31 01:18:30;;;;;;;3.10;2.20;;;5.50;99.90;;;6.27;100.00;97269.97;4951261;28;20459;-80
2023/12/31 01:20:59;;;;;;;18.20;1.90;;;5.40;99.90;;;6.26;100.00;97263.97;4948051;28;20466;-78
2023/12/31 01:23:27;;;;;;;2.73;2.10;;;5.40;99.90;;;6.15;100.00;97271.38;4943613;28;20466;-80
2023/12/31 01:25:57;;;;;;;3.93;1.90;;;5.30;99.90;;;6.17;100.00;97265.06;4939811;28;20466;-80
2023/12/31 01:28:26;;;;;;;9.10;2.20;;;5.30;99.90;;;6.10;100.00;97264.16;4944955;28;20478;-80
2023/12/31 01:30:56;;;;;;;5.93;1.80;;;5.20;99.90;;;6.08;100.00;97251.34;4946613;28;20458;-79
2023/12/31 01:33:25;;;;;;;2.87;1.80;;;5.20;99.90;;;6.11;100.00;97249.41;4942786;28;21179;-80
2023/12/31 01:35:54;;;;;;;2.80;1.97;;;5.20;99.90;;;6.15;100.00;97241.03;4948113;28;20501;-79
2023/12/31 01:38:22;;;;;;;3.87;2.13;;;5.30;99.90;;;6.19;100.00;97231.94;4939624;28;20469;-79
2023/12/31 01:40:54;;;;;;;3.87;2.10;;;5.40;99.90;;;6.10;100.00;97227.81;4943398;28;20474;-80
2023/12/31 01:43:24;;;;;;;3.20;1.90;;;5.20;99.90;;;5.88;100.00;97239.06;4949630;28;20506;-80
2023/12/31 01:45:53;;;;;;;2.13;1.70;;;5.00;99.90;;;5.90;100.00;97227.53;4953685;28;20587;-80
2023/12/31 01:48:22;;;;;;;2.70;2.50;;;5.00;99.90;;;5.88;100.00;97234.69;4942351;28;20462;-79
2023/12/31 01:50:50;;;;;;;5.10;2.43;;;5.00;99.90;;;5.89;100.00;97225.13;4939713;28;20505;-79
2023/12/31 01:53:20;;;;;;;9.77;2.10;;;5.00;99.90;;;5.89;100.00;97219.94;4950577;28;20462;-79
2023/12/31 01:55:51;;;;;;;3.03;2.13;;;5.10;99.90;;;5.91;100.00;97213.56;4952753;28;20821;-80
2023/12/31 01:58:20;;;;;;;6.33;2.60;;;5.10;99.90;;;5.90;100.00;97203.41;4949953;28;20474;-80
2023/12/31 02:00:52;;;;;;;3.50;2.20;;;5.00;99.90;;;5.87;100.00;97207.13;4946623;28;20578;-79
2023/12/31 02:03:20;;;;;;;2.30;1.97;;;5.10;99.90;;;5.84;100.00;97201.47;4942362;28;20470;-80
2023/12/31 02:05:50;;;;;;;4.77;2.17;;;5.00;99.90;;;5.93;100.00;97201.25;4936405;28;20486;-80
2023/12/31 02:08:19;;;;;;;3.70;2.40;;;5.10;99.90;;;5.99;100.00;97194.53;4935131;28;20478;-80
2023/12/31 02:10:48;;;;;;;4.80;2.10;;;5.20;99.90;;;5.98;100.00;97179.94;4938248;28;20470;-80
2023/12/31 02:13:18;;;;;;;6.07;2.20;;;5.20;99.90;;;5.88;100.00;97184.59;4934262;28;20844;-80
2023/12/31 02:15:46;;;;;;;2.70;2.03;;;5.10;99.90;;;5.91;100.00;97189.41;4938849;28;20494;-80
2023/12/31 02:18:16;;;;;;;2.60;1.70;;;5.10;99.90;;;5.95;100.00;97172.50;4943513;28;20470;-80
2023/12/31 02:20:45;;;;;;;2.70;2.20;;;5.20;99.90;;;5.91;100.00;97171.25;4936783;28;20977;-79
2023/12/31 02:23:14;;;;;;;3.47;2.03;;;5.20;99.90;;;5.96;100.00;97166.34;4938333;28;20490;-80
2023/12/31 02:25:46;;;;;;;3.23;2.20;;;5.30;99.90;;;5.95;100.00;97154.34;4940872;28;20463;-79
2023/12/31 02:28:16;;;;;;;2.63;1.87;;;5.20;99.90;;;5.91;100.00;97156.50;4940114;28;20467;-80
2023/12/31 02:30:45;;;;;;;3.90;2.40;;;5.10;99.90;;;5.80;100.00;97161.28;4942364;28;20523;-79
2023/12/31 02:33:13;;;;;;;5.83;1.80;;;5.00;99.90;;;5.78;100.00;97145.13;4936305;28;20463;-80
2023/12/31 02:35:42;;;;;;;2.47;2.00;;;5.00;99.90;;;5.77;100.00;97136.53;4933586;28;20472;-80
2023/12/31 02:38:11;;;;;;;4.70;2.20;;;4.90;99.90;;;5.76;100.00;97134.13;4936254;28;20466;-80
2023/12/31 02:40:39;;;;;;;4.30;2.17;;;5.00;99.90;;;5.73;100.00;97131.88;4935848;28;20470;-80
2023/12/31 02:43:08;;;;;;;3.97;2.30;;;4.90;99.90;;;5.72;100.00;97119.91;4934714;28;20608;-80
2023/12/31 02:45:38;;;;;;;6.50;2.10;;;4.90;99.90;;;5.73;100.00;97118.91;4946505;28;20470;-80
2023/12/31 02:48:07;;;;;;;3.07;1.87;;;4.90;99.90;;;5.70;100.00;97117.47;4941694;28;20477;-80
2023/12/31 02:50:36;;;;;;;4.40;2.80;;;4.90;99.90;;;5.74;100.00;97112.72;4948078;28;20478;-80
2023/12/31 02:53:05;;;;;;;4.10;2.27;;;5.00;99.90;;;5.76;100.00;97110.78;4948569;28;20466;-80
2023/12/31 02:55:33;;;;;;;4.03;2.23;;;4.90;99.90;;;5.76;100.00;97106.38;4945482;28;21206;-79
2023/12/31 02:58:02;;;;;;;2.47;2.27;;;5.00;99.90;;;5.76;100.00;97084.84;4944970;28;20529;-79
2023/12/31 03:00:31;;;;;;;2.97;2.03;;;5.00;99.90;;;5.78;100.00;97073.31;4948257;28;20474;-79
2023/12/31 03:03:01;;;;;;;2.67;1.90;;;5.10;99.90;;;5.77;100.00;97081.25;4956082;28;20462;-80
2023/12/31 03:05:30;;;;;;;3.10;2.07;;;5.10;99.90;;;5.77;100.00;97071.69;4948674;28;20490;-80
2023/12/31 03:07:58;;;;;;;2.70;2.10;;;5.10;99.90;;;5.78;100.00;97072.50;4958988;28;20470;-79
2023/12/31 03:10:28;;;;;;;4.03;1.67;;;5.10;99.90;;;5.70;100.00;97069.97;4953489;28;20474;-80
2023/12/31 03:12:57;;;;;;;3.13;2.00;;;5.00;99.90;;;5.73;100.00;97064.44;4961901;28;20462;-80
2023/12/31 03:15:25;;;;;;;5.43;2.17;;;5.00;99.90;;;5.75;100.00;97068.47;4953923;28;20465;-80
2023/12/31 03:17:54;;;;;;;3.97;2.20;;;5.10;99.90;;;5.76;100.00;97062.28;4945268;28;20502;-79
2023/12/31 03:20:24;;;;;;;4.63;2.50;;;5.00;99.90;;;5.74;100.00;97060.88;4954993;28;20525;-79
2023/12/31 03:22:52;;;;;;;5.00;2.37;;;5.00;99.90;;;5.75;100.00;97052.91;4943918;28;20482;-79
2023/12/31 03:25:21;;;;;;;3.53;2.40;;;5.00;99.90;;;5.74;100.00;97050.50;4942550;28;20466;-80
2023/12/31 03:27:49;;;;;;;5.13;2.70;;;4.90;99.90;;;5.64;100.00;97057.75;4937205;28;20478;-80
2023/12/31 03:30:18;;;;;;;3.20;2.13;;;4.90;99.90;;;5.68;100.00;97051.22;4939095;28;20467;-79
2023/12/31 03:32:46;;;;;;;2.90;2.20;;;5.00;99.90;;;5.67;100.00;97052.19;4936942;28;20467;-79
2023/12/31 03:35:15;;;;;;;7.17;2.90;;;4.90;99.90;;;5.67;100.00;97039.22;4950830;28;20478;-79
2023/12/31 03:37:47;;;;;;;5.47;1.90;;;4.90;99.90;;;5.67;100.00;97045.22;4944132;28;20554;-79
2023/12/31 03:40:16;;;;;;;6.03;2.60;;;4.90;99.90;;;5.70;100.00;97041.47;4937726;28;20497;-80
2023/12/31 03:42:45;;;;;;;4.40;1.87;;;4.90;99.90;;;5.66;100.00;97038.41;4946511;28;20533;-79
2023/12/31 03:45:13;;;;;;;3.77;2.37;;;4.90;99.90;;;5.65;100.00;97031.66;4946034;28;20482;-79
2023/12/31 03:47:42;;;;;;;3.80;2.70;;;4.90;99.90;;;5.67;100.00;97028.84;4944513;28;20521;-79
2023/12/31 03:50:11;;;;;;;4.10;2.30;;;4.90;99.90;;;5.59;100.00;97027.97;4944792;28;20470;-80
2023/12/31 03:52:40;;;;;;;6.80;3.13;;;4.80;99.90;;;5.63;100.00;97017.22;4933695;28;20467;-79
2023/12/31 03:55:10;;;;;;;4.37;2.53;;;4.80;99.90;;;5.59;100.00;97006.41;4946782;28;20466;-79
2023/12/31 03:57:38;;;;;;;4.03;2.73;;;4.80;99.90;;;5.56;100.00;96999.81;4944285;28;20494;-79
2023/12/31 04:00:09;;;;;;;4.23;2.47;;;4.80;99.90;;;5.45;100.00;97004.66;4938508;28;20997;-79
2023/12/31 04:02:37;;;;;;;4.47;3.00;;;4.60;99.90;;;5.51;100.00;97009.94;4940144;28;20466;-80
2023/12/31 04:05:07;;;;;;;4.60;2.20;;;4.70;99.90;;;5.52;100.00;96998.56;4950479;28;21155;-79
2023/12/31 04:07:36;;;;;;;8.30;3.07;;;4.70;99.90;;;5.57;100.00;96990.25;4937576;28;20516;-79
2023/12/31 04:10:05;;;;;;;7.33;2.90;;;4.80;99.90;;;5.58;100.00;96987.50;4941852;28;20528;-80
2023/12/31 04:12:35;;;;;;;4.37;2.87;;;4.80;99.90;;;5.57;100.00;96985.06;4936611;28;20493;-79
2023/12/31 04:15:07;;;;;;;3.50;2.70;;;4.80;99.90;;;5.60;100.00;96971.75;4946018;28;20520;-79
2023/12/31 04:17:36;;;;;;;4.60;2.70;;;4.80;99.90;;;5.60;100.00;96969.16;4954615;28;21393;-80
2023/12/31 04:20:07;;;;;;;3.90;3.07;;;4.80;99.90;;;5.59;100.00;96965.75;4949853;28;20533;-79
2023/12/31 04:22:35;;;;;;;5.37;3.10;;;4.80;99.90;;;5.59;100.00;96957.97;4942563;28;20478;-80
2023/12/31 04:25:05;;;;;;;6.90;2.80;;;4.80;99.90;;;5.63;100.00;96949.81;4946261;28;20494;-80
2023/12/31 04:27:38;;;;;;;3.00;2.20;;;4.80;99.90;;;5.65;100.00;96950.47;4952549;28;20472;-80
2023/12/31 04:30:08;;;;;;;4.10;2.40;;;4.80;99.90;;;5.63;100.00;96939.44;4951107;28;20547;-79
2023/12/31 04:32:36;;;;;;;4.00;2.97;;;4.80;99.90;;;5.67;100.00;96935.50;4954398;28;21243;-79
2023/12/31 04:35:06;;;;;;;4.23;2.60;;;4.90;99.90;;;5.62;100.00;96932.69;4954357;28;20885;-79
2023/12/31 04:37:35;;;;;;;3.97;2.70;;;4.90;99.90;;;5.63;100.00;96929.88;4956430;28;20545;-80
2023/12/31 04:40:06;;;;;;;3.43;2.20;;;4.90;99.90;;;5.59;100.00;96915.69;4942515;28;20470;-79
2023/12/31 04:42:36;;;;;;;4.60;2.70;;;4.80;99.90;;;5.55;100.00;96917.81;4944982;28;21250;-79
2023/12/31 04:45:09;;;;;;;3.07;2.63;;;4.80;99.90;;;5.55;100.00;96907.47;4951833;28;21033;-79
2023/12/31 04:47:37;;;;;;;3.00;2.70;;;4.80;99.90;;;5.48;100.00;96903.22;4943768;28;20478;-80
2023/12/31 04:50:08;;;;;;;8.27;2.50;;;4.70;99.90;;;5.50;100.00;96904.63;4943045;28;20486;-79
2023/12/31 04:52:37;;;;;;;3.93;2.33;;;4.70;99.90;;;5.52;100.00;96899.25;4935428;28;20568;-80
2023/12/31 04:55:06;;;;;;;4.87;2.40;;;4.70;99.90;;;5.53;100.00;96901.66;4937960;28;20601;-79
2023/12/31 04:57:36;;;;;;;5.33;2.73;;;4.70;99.90;;;5.54;100.00;96887.72;4934569;28;20498;-79
2023/12/31 05:00:06;;;;;;;3.57;2.40;;;4.80;99.90;;;5.50;100.00;96891.66;4940937;28;20513;-80
2023/12/31 05:02:35;;;;;;;2.03;1.83;;;4.70;99.90;;;5.52;100.00;96881.91;4948297;28;20481;-80
2023/12/31 05:05:06;;;;;;;2.77;2.07;;;4.80;99.90;;;5.53;100.00;96873.16;4946590;28;20532;-80
2023/12/31 05:07:34;;;;;;;3.53;2.27;;;4.80;99.90;;;5.54;100.00;96869.56;4948342;28;20467;-79
2023/12/31 05:10:04;;;;;;;2.90;2.00;;;4.80;99.90;;;5.51;100.00;96874.31;4950918;28;20474;-80
2023/12/31 05:12:34;;;;;;;5.53;2.43;;;4.70;99.90;;;5.45;100.00;96888.00;4958256;28;20469;-80
2023/12/31 05:15:03;;;;;;;2.83;2.37;;;4.60;99.90;;;5.44;100.00;96879.44;4947174;28;20497;-80
2023/12/31 05:17:31;;;;;;;6.10;2.70;;;4.60;99.90;;;5.45;100.00;96881.03;4948528;28;20572;-80
2023/12/31 05:20:00;;;;;;;4.77;2.60;;;4.60;99.90;;;5.44;100.00;96869.06;4946822;28;20497;-80
2023/12/31 05:22:29;;;;;;;3.93;2.87;;;4.70;99.90;;;5.44;100.00;96869.06;4947987;28;20469;-80
2023/12/31 05:24:57;;;;;;;2.17;1.97;;;4.70;99.90;;;5.46;100.00;96876.66;4946876;28;20480;-79
2023/12/31 05:27:26;;;;;;;4.20;2.30;;;4.70;99.90;;;5.47;100.00;96884.25;4952700;28;20462;-79
2023/12/31 05:29:56;;;;;;;2.90;2.20;;;4.70;99.90;;;5.50;100.00;96876.13;4942040;28;20475;-80
2023/12/31 05:32:24;;;;;;;16.43;2.93;;;4.80;99.90;;;5.54;100.00;96868.78;4952096;28;20470;-80
2023/12/31 05:34:53;;;;;;;4.90;2.23;;;4.90;99.90;;;5.53;100.00;96867.97;4945961;28;20493;-79
2023/12/31 05:37:21;;;;;;;2.27;1.97;;;4.80;99.90;;;5.55;100.00;96875.56;4950300;28;20543;-80
2023/12/31 05:39:50;;;;;;;5.17;2.23;;;4.80;99.90;;;5.55;100.00;96865.97;4938276;28;20473;-80
2023/12/31 05:42:18;;;;;;;3.90;2.40;;;4.80;99.90;;;5.50;100.00;96860.56;4938227;28;20478;-80
2023/12/31 05:44:47;;;;;;;2.20;2.00;;;4.70;99.90;;;5.50;100.00;96850.19;4949561;28;20472;-80
2023/12/31 05:47:17;;;;;;;2.30;1.83;;;4.70;99.90;;;5.51;100.00;96854.41;4950620;28;20535;-80
2023/12/31 05:50:06;;;;;;;2.63;2.20;;;4.70;99.90;;;5.48;100.00;96841.78;4943999;28;20471;-80
2023/12/31 05:52:34;;;;;;;2.47;2.00;;;4.70;99.90;;;5.49;100.00;96840.78;4950838;28;20831;-79
2023/12/31 05:55:03;;;;;;;3.63;2.23;;;4.70;99.90;;;5.46;100.00;96835.19;4945717;28;20493;-79
2023/12/31 05:57:32;;;;;;;2.67;2.03;;;4.60;99.90;;;5.50;100.00;96834.63;4948254;28;20470;-80
2023/12/31 06:00:02;;;;;;;7.23;2.47;;;4.70;99.90;;;5.50;100.00;96832.03;4945872;28;20469;-80
2023/12/31 06:02:32;;;;;;;5.57;2.50;;;4.70;99.90;;;5.55;100.00;96829.69;4945012;28;21132;-80
2023/12/31 06:05:00;;;;;;;4.43;2.50;;;4.80;99.90;;;5.55;100.00;96819.31;4946899;28;20478;-79
2023/12/31 06:07:30;;;;;;;2.83;2.47;;;4.80;99.90;;;5.48;100.00;96828.03;4943923;28;20462;-79
2023/12/31 06:09:58;;;;;;;4.23;2.00;;;4.70;99.90;;;5.56;100.00;96813.16;4947977;28;21016;-80
2023/12/31 06:12:28;;;;;;;5.07;2.10;;;4.80;99.90;;;5.61;100.00;96819.56;4946820;28;20981;-79
2023/12/31 06:14:56;;;;;;;5.53;2.33;;;4.80;99.90;;;5.65;100.00;96813.84;4944255;28;20474;-80
2023/12/31 06:17:25;;;;;;;2.60;2.10;;;4.90;99.90;;;5.63;100.00;96812.38;4943359;28;20474;-80
2023/12/31 06:19:54;;;;;;;3.80;2.20;;;4.90;99.90;;;5.61;100.00;96807.41;4947456;28;20502;-79
2023/12/31 06:22:23;;;;;;;4.07;2.30;;;4.90;99.90;;;5.66;100.00;96801.69;4933978;28;20470;-80
2023/12/31 06:24:52;;;;;;;5.60;2.27;;;5.00;99.90;;;5.69;100.00;96794.31;4935975;28;20511;-80
2023/12/31 06:27:20;;;;;;;2.40;2.20;;;5.00;99.90;;;5.68;100.00;96790.13;4939462;28;20461;-80
2023/12/31 06:29:50;;;;;;;2.00;1.90;;;4.90;99.90;;;5.67;100.00;96800.66;4938692;28;20961;-80
2023/12/31 06:32:18;;;;;;;7.87;3.10;;;4.90;99.90;;;5.71;100.00;96796.72;4936845;28;20462;-80
2023/12/31 06:34:47;;;;;;;5.87;2.17;;;5.00;99.90;;;5.76;100.00;96799.56;4942656;28;20472;-80
2023/12/31 06:37:17;;;;;;;72.80;38.40;;;5.00;99.90;;;5.78;100.00;96793.19;4946098;28;20474;-78
2023/12/31 06:39:46;;;;;;;3.07;2.40;;;5.10;99.90;;;5.78;100.00;96792.38;4944188;28;20497;-80
2023/12/31 06:42:15;;;;;;;2.83;1.90;;;5.10;99.90;;;5.82;100.00;96778.06;4946440;28;20490;-80
2023/12/31 06:44:43;;;;;;;6.23;2.60;;;5.20;99.90;;;5.85;100.00;96775.88;4961470;28;20549;-79
2023/12/31 06:47:12;;;;;;;1.80;1.70;;;5.20;99.90;;;5.83;100.00;96780.44;4947344;28;20477;-79
2023/12/31 06:49:40;;;;;;;19.43;10.83;;;5.10;99.90;;;5.83;100.00;96775.25;4948025;28;20470;-77
2023/12/31 06:52:09;;;;;;;9.83;4.20;;;5.10;99.90;;;5.89;100.00;96773.75;4945932;28;20558;-80
2023/12/31 06:54:40;;;;;;;5.10;2.67;;;5.20;99.90;;;5.92;100.00;96763.00;4941511;28;21251;-80
2023/12/31 06:57:09;;;;;;;2.70;2.50;;;5.30;99.90;;;5.92;100.00;96761.19;4950714;28;20481;-80
2023/12/31 06:59:38;;;;;;;4.20;2.70;;;5.30;99.90;;;5.98;100.00;96762.22;4949172;28;20512;-80
2023/12/31 07:02:07;;;;;;;2.53;2.10;;;5.40;99.90;;;5.99;100.00;96758.66;4944372;28;20474;-80
2023/12/31 07:04:36;;;;;;;3.77;2.80;;;5.30;99.90;;;6.04;100.00;96746.69;4941682;28;20542;-80
2023/12/31 07:07:05;;;;;;;5.80;2.53;;;5.40;99.90;;;6.06;100.00;96749.13;4946002;28;20470;-79
2023/12/31 07:09:34;;;;;;;3.07;2.20;;;5.40;99.90;;;6.12;100.00;96748.34;4944964;28;20892;-79
2023/12/31 07:12:04;;;;;;;3.60;2.30;;;5.50;99.90;;;6.16;100.00;96744.38;4944307;28;20471;-80
2023/12/31 07:14:33;;;;;;;7.80;3.47;;;5.50;99.90;;;6.25;100.00;96748.41;4947077;28;20466;-79
2023/12/31 07:17:02;;;;;;;4.47;2.80;;;5.60;99.90;;;6.42;100.00;96738.53;4947611;28;20974;-79
2023/12/31 07:19:30;;;;;;;5.17;3.00;;;5.90;99.90;;;6.51;100.00;96727.78;4943198;28;20495;-78
2023/12/31 07:21:59;;;;;;;4.90;3.00;;;6.00;99.90;;;6.57;100.00;96732.19;4955217;28;20506;-78
2023/12/31 07:24:27;;;;;;;6.33;3.17;;;6.00;99.90;;;6.64;100.00;96721.81;4969796;28;20460;-77
2023/12/31 07:26:57;;;;;;;5.13;3.37;;;6.10;99.90;;;6.70;100.00;96726.22;4969601;28;20479;-77
2023/12/31 07:29:27;;;;;;;4.77;3.10;;;6.20;99.90;;;6.76;100.00;96724.66;4962967;28;20524;-78
2023/12/31 07:31:56;;;;;;;4.67;3.13;;;6.20;99.90;;;6.84;100.00;96716.66;4966179;28;21207;-77
2023/12/31 07:34:25;;;;;;;5.43;3.77;;;6.30;99.90;;;6.92;100.00;96709.50;4966965;28;21468;-77
2023/12/31 07:36:53;;;;;;;6.37;3.57;;;6.40;99.90;;;7.00;100.00;96717.13;4968808;28;20543;-75
2023/12/31 07:39:22;;;;;;;5.27;3.80;;;6.50;99.90;;;7.17;100.00;96721.94;4968804;28;20492;-78
2023/12/31 07:41:50;;;;;;;4.17;3.33;;;6.70;99.90;;;7.28;100.00;96706.56;4969686;28;20488;-77
2023/12/31 07:44:19;;;;;;;5.17;3.60;;;6.80;99.90;;;7.38;100.00;96700.97;4969410;28;20912;-77
2023/12/31 07:46:49;;;;;;;12.73;4.00;;;6.90;99.90;;;7.43;100.00;96698.56;4972221;28;20469;-78
2023/12/31 07:49:18;;;;;;;5.50;3.90;;;6.90;99.90;;;7.50;100.00;96689.75;4970056;28;20484;-80
2023/12/31 07:51:48;;;;;;;5.90;3.80;;;7.00;99.90;;;7.63;100.00;96695.97;4971814;28;20463;-78
2023/12/31 07:54:16;;;;;;;8.77;4.30;;;7.10;99.90;;;7.71;100.00;96687.94;4970331;28;20464;-78
2023/12/31 07:56:45;;;;;;;6.90;4.27;;;7.20;99.90;;;7.75;100.00;96683.91;4971547;28;20475;-78
2023/12/31 07:59:13;;;;;;;6.27;3.30;;;7.30;99.90;;;7.78;100.00;96691.31;4969822;28;20481;-77
2023/12/31 08:01:41;;;;;;;4.40;2.93;;;7.30;99.90;;;7.84;100.00;96687.94;4970847;28;20460;-77
2023/12/31 08:04:12;;;;;;;6.57;3.40;;;7.40;99.90;;;7.88;100.00;96689.91;4969310;28;20562;-77
2023/12/31 08:06:41;;;;;;;3.87;3.27;;;7.40;99.90;;;7.89;100.00;96691.50;4971805;28;20497;-77
2023/12/31 08:09:13;;;;;;;6.50;3.97;;;7.40;99.90;;;7.92;100.00;96691.09;4972308;28;20838;-77
2023/12/31 08:11:42;;;;;;;4.83;3.03;;;7.50;99.90;;;7.97;100.00;96706.13;4973801;28;20456;-77
2023/12/31 08:14:10;;;;;;;4.63;2.87;;;7.50;99.90;;;8.02;100.00;96690.66;4971279;28;20566;-77
2023/12/31 08:16:39;;;;;;;5.30;3.63;;;7.60;99.90;;;8.09;100.00;96686.25;4971823;28;20475;-77
2023/12/31 08:19:08;;;;;;;3.77;2.97;;;7.70;99.90;;;8.16;100.00;96681.81;4970037;28;21050;-77
2023/12/31 08:21:38;;;;;;;5.13;3.33;;;7.80;99.90;;;8.27;100.00;96688.19;4971349;28;20461;-77
2023/12/31 08:24:07;;;;;;;5.03;3.03;;;7.90;99.90;;;8.30;100.00;96683.41;4972204;28;20472;-77
2023/12/31 08:26:37;;;;;;;4.03;3.43;;;7.90;99.90;;;8.34;100.00;96668.97;4970513;28;20925;-77
2023/12/31 08:29:08;;;;;;;5.43;3.20;;;7.90;99.90;;;8.38;100.00;96664.16;4970442;28;20475;-77
2023/12/31 08:31:36;;;;;;;3.63;3.10;;;7.90;99.90;;;8.41;100.00;96669.75;4972284;28;20472;-77
2023/12/31 08:34:07;;;;;;;3.60;2.93;;;8.00;99.90;;;8.43;100.00;96657.31;4969402;28;20471;-76
2023/12/31 08:36:37;;;;;;;5.83;3.43;;;8.00;99.90;;;8.45;100.00;96670.94;4969497;28;20567;-77
2023/12/31 08:39:06;;;;;;;5.73;3.03;;;8.00;99.90;;;8.49;100.00;96664.31;4968998;28;20476;-77
2023/12/31 08:41:35;;;;;;;4.63;3.23;;;8.10;99.90;;;8.53;100.00;96670.69;4968946;28;21196;-77
2023/12/31 08:44:05;;;;;;;6.43;2.80;;;8.10;99.90;;;8.56;100.00;96666.88;4967823;28;20469;-77
2023/12/31 08:46:33;;;;;;;7.00;3.27;;;8.20;99.90;;;8.60;100.00;96665.47;4968974;28;20461;-78
2023/12/31 08:49:02;;;;;;;4.23;2.80;;;8.20;99.90;;;8.65;100.00;96660.41;4969499;28;20472;-78
2023/12/31 08:51:31;;;;;;;5.20;3.03;;;8.20;99.90;;;8.70;100.00;96667.59;4967745;28;20469;-78
2023/12/31 08:54:00;;;;;;;48.47;23.20;;;8.30;99.90;;;8.74;100.00;96679.22;4968567;28;20476;-78
2023/12/31 08:56:29;;;;;;;7.90;3.50;;;8.30;99.90;;;8.77;100.00;96674.38;4968788;28;20469;-78
2023/12/31 08:58:57;;;;;;;3.77;2.33;;;8.30;99.90;;;8.81;100.00;96667.75;4970682;28;20465;-77
2023/12/31 09:01:26;;;;;;;2.50;2.17;;;8.40;99.90;;;8.83;100.00;96664.91;4968164;28;20531;-78
2023/12/31 09:03:55;;;;;;;7.60;2.60;;;8.50;99.90;;;8.83;100.00;96657.09;4969427;28;20465;-77
2023/12/31 09:06:23;;;;;;;7.07;2.90;;;8.50;99.90;;;8.87;100.00;96668.69;4968946;28;20461;-78
2023/12/31 09:08:52;;;;;;;4.43;2.93;;;8.50;99.90;;;8.87;100.00;96663.50;4968455;28;20487;-77
2023/12/31 09:11:22;;;;;;;4.53;2.70;;;8.50;99.90;;;8.88;100.00;96659.88;4965977;28;20466;-78
2023/12/31 09:13:50;;;;;;;3.67;2.57;;;8.40;99.90;;;8.90;100.00;96670.88;4969652;28;20468;-78
2023/12/31 09:16:19;;;;;;;4.57;2.87;;;8.50;99.90;;;8.89;100.00;96669.28;4967766;28;20883;-78
2023/12/31 09:18:47;;;;;;;6.30;2.87;;;8.40;99.90;;;8.91;100.00;96667.28;4969927;28;20469;-78
2023/12/31 09:21:16;;;;;;;7.47;3.37;;;8.40;99.90;;;8.90;100.00;96668.28;4970121;28;20503;-77
2023/12/31 09:23:45;;;;;;;6.13;3.17;;;8.50;99.90;;;8.89;100.00;96677.91;4969460;28;20539;-77
2023/12/31 09:26:14;;;;;;;4.20;3.10;;;8.50;99.90;;;8.91;100.00;96656.84;4968838;28;20471;-76
2023/12/31 09:28:44;;;;;;;4.47;3.03;;;8.40;99.90;;;8.93;100.00;96660.03;4970568;28;20472;-77
2023/12/31 09:31:13;;;;;;;8.17;5.20;;;8.50;99.90;;;8.92;100.00;96646.19;4971107;28;20539;-77
2023/12/31 09:33:41;;;;;;;5.40;3.33;;;8.50;99.90;;;8.93;100.00;96647.00;4968776;28;20495;-77
2023/12/31 09:36:11;;;;;;;3.87;3.47;;;8.50;99.90;;;8.93;100.00;96660.03;4967775;28;21337;-77
2023/12/31 09:38:46;;;;;;;4.73;3.03;;;8.50;99.90;;;8.92;100.00;96640.97;4967400;28;20495;-77
2023/12/31 09:41:27;;;;;;;2.73;2.53;;;8.50;99.90;;;8.91;100.00;96643.81;4964913;28;21030;-77
2023/12/31 09:44:00;;;;;;;6.90;2.67;;;8.50;99.90;;;8.91;100.00;96711.59;4968432;28;20474;-77
2023/12/31 09:46:34;;;;;;;12.27;7.13;;;8.50;99.90;;;8.86;100.00;96719.22;4966986;28;20464;-74
2023/12/31 09:49:03;;;;;;;3.33;2.30;;;8.50;99.90;;;8.81;100.00;96700.81;4967935;28;20456;-77
2023/12/31 09:51:35;;;;;;;2.00;1.60;;;8.50;99.90;;;8.74;100.00;96706.06;4968207;28;21513;-77
2023/12/31 09:54:09;;;;;;;1.93;1.60;;;8.40;99.90;;;8.66;100.00;96708.09;4967837;28;20468;-77
2023/12/31 09:56:40;;;;;;;1.63;1.53;;;8.30;99.90;;;8.62;100.00;96722.56;4970119;28;20599;-77
2023/12/31 09:59:11;;;;;;;2.30;1.30;;;8.20;99.90;;;8.58;100.00;96733.38;4966938;28;20464;-77
2023/12/31 10:01:42;;;;;;;2.90;1.10;;;8.20;99.90;;;8.51;100.00;96722.19;4968355;28;20495;-77
2023/12/31 10:04:11;;;;;;;1.53;1.13;;;8.20;99.90;;;8.48;100.00;96727.00;4971667;28;20468;-77
2023/12/31 10:06:41;;;;;;;1.20;1.10;;;8.00;99.90;;;8.48;100.00;96730.44;4969275;28;20472;-77
2023/12/31 10:09:13;;;;;;;1.37;1.10;;;8.10;99.90;;;8.46;100.00;96735.06;4971066;28;20464;-78
2023/12/31 10:11:43;;;;;;;1.00;0.90;;;8.10;99.90;;;8.39;100.00;96734.28;4973249;28;20479;-79
2023/12/31 10:14:14;;;;;;;1.40;0.93;;;7.90;99.90;;;8.43;100.00;96737.28;4971248;28;20811;-78
2023/12/31 10:16:44;;;;;;;1.83;0.90;;;8.00;99.90;;;8.41;100.00;96721.84;4974205;28;20550;-77
2023/12/31 10:19:12;;;;;;;1.10;1.00;;;8.10;99.90;;;8.38;100.00;96737.06;4971041;28;20627;-78
2023/12/31 10:21:42;;;;;;;1.13;0.90;;;7.90;99.90;;;8.33;100.00;96732.47;4971205;28;20917;-77
2023/12/31 10:24:12;;;;;;;1.67;1.07;;;7.90;99.90;;;8.34;100.00;96741.88;4967838;28;20472;-77
2023/12/31 10:26:41;;;;;;;1.00;0.90;;;7.90;99.90;;;8.34;100.00;96735.88;4969843;28;20461;-78
2023/12/31 10:29:11;;;;;;;1.00;0.90;;;7.90;99.90;;;8.36;100.00;96733.88;4970541;28;20496;-78
2023/12/31 10:31:43;;;;;;;1.37;0.80;;;7.90;99.90;;;8.28;100.00;96741.88;4972671;28;20468;-77
2023/12/31 10:34:16;;;;;;;1.77;1.17;;;7.90;99.90;;;8.30;100.00;96732.06;4970394;28;20468;-78